• Join FlightAware (Why Join?)
  • Login
  • US Flag 
03:03PM EDT


 

Airport Tracker/Info


-or-


 

Live Flight TrackerFlight Track Log ✈ N742AX ✈ 10-Apr-2013 ✈ SPIM / LIM - KMIA

Flight Track Log - Related Links

Times and Time Zones

All times are in EDT time to prevent confusion due to time zone crossing. See the N742AX flight status page for this flight to view local times or setup timezone preferences in your user account.

Time Position Orientation Groundspeed Altitude Reporting Facility
EDT Latitude Longitude Course Direction KTS MPH feet Rate Location/Type
03:26PM 9.1400 -79.6160 351° North 458 527 36,000  Level FlightAware
03:28PM 9.3920 -79.6570 351° North 457 526 36,000  Level FlightAware
03:31PM 10.0478 -79.6805 358° North  Level Estimated
03:31PM 9.8140 -79.7300 358° North 457 526 36,000  Level FlightAware
03:32PM 10.3229 -79.6903 358° North  Level Estimated
03:32PM 9.9170 -79.7480 350° North 456 525 36,000  Level FlightAware
03:34PM 10.1260 -79.7840 350° North 454 522 36,000  Level FlightAware
03:35PM 10.3050 -79.8140 351° North 444 511 36,000  Level FlightAware
03:36PM 10.3900 -79.8290 350° North 443 510 36,000  Level FlightAware
03:37PM 10.4710 -79.8430 350° North 442 509 36,000  Level FlightAware
03:37PM 10.5430 -79.8550 351° North 441 507 36,000  Level FlightAware
03:38PM 10.6700 -79.8770 350° North 441 507 36,000  Level FlightAware
03:39PM 10.7650 -79.8940 350° North 440 506 36,000  Level FlightAware
03:40PM 10.8550 -79.9100 350° North 440 506 36,000  Level FlightAware
03:41PM 10.9680 -79.9320 349° North 441 507 36,000  Level FlightAware
03:42PM 11.0620 -79.9490 350° North 441 507 36,000  Level FlightAware
03:42PM 11.1120 -79.9580 350° North 441 507 36,000  Level FlightAware
03:43PM 11.1920 -79.9740 349° North 441 507 36,000  Level FlightAware
03:44PM 11.2770 -79.9910 349° North 441 507 36,000  Level FlightAware
03:44PM 11.3460 -80.0050 349° North 441 507 36,000  Level FlightAware
03:45PM 11.4140 -80.0180 349° North 441 507 36,000  Level FlightAware
03:46PM 11.5830 -80.0400 353° North 441 507 36,000  Level FlightAware
03:47PM 11.6510 -80.0520 350° North 441 507 36,000  Level FlightAware
03:47PM 11.7190 -80.0650 349° North 441 507 36,000  Level FlightAware
03:48PM 11.8050 -80.0800 350° North 441 507 36,000  Level FlightAware
03:49PM 11.8730 -80.0920 350° North 441 507 36,000  Level FlightAware
03:49PM 11.9410 -80.1050 349° North 441 507 36,000  Level FlightAware
03:50PM 12.0100 -80.1170 350° North 441 507 36,000  Level FlightAware
03:51PM 12.0780 -80.1290 350° North 441 507 36,000  Level FlightAware
03:52PM 12.1630 -80.1450 350° North 441 507 36,000  Level FlightAware
03:52PM 12.2320 -80.1570 350° North 441 507 36,000  Level FlightAware
03:53PM 12.3000 -80.1690 350° North 441 507 36,000  Level FlightAware
03:54PM 12.3680 -80.1820 349° North 441 507 36,000  Level FlightAware
03:54PM 12.4370 -80.1940 350° North 441 507 36,000  Level FlightAware
03:55PM 12.5220 -80.2100 350° North 441 507 36,000  Level FlightAware
03:58PM 13.2011 -80.2138 360° North  Level Estimated
03:59PM 13.4764 -80.2154 360° North  Level Estimated
04:00PM 13.7518 -80.2169 360° North  Level Estimated
04:01PM 14.0271 -80.2185 360° North  Level Estimated
04:02PM 14.3024 -80.2201 360° North  Level Estimated
04:03PM 14.5777 -80.2216 360° North  Level Estimated
04:04PM 14.8530 -80.2232 360° North  Level Estimated
04:05PM 15.1284 -80.2248 360° North  Level Estimated
04:06PM 15.4037 -80.2264 360° North  Level Estimated
04:07PM 15.6790 -80.2280 360° North  Level Estimated
04:08PM 15.9543 -80.2296 360° North  Level Estimated
04:09PM 16.2296 -80.2312 360° North  Level Estimated
04:10PM 16.5050 -80.2328 360° North  Level Estimated
04:11PM 16.7803 -80.2344 360° North  Level Estimated
04:12PM 17.0556 -80.2360 360° North  Level Estimated
04:13PM 17.3309 -80.2376 360° North  Level Estimated
04:14PM 17.6062 -80.2392 360° North  Level Estimated
04:15PM 17.8816 -80.2408 360° North  Level Estimated
04:16PM 18.1569 -80.2425 360° North  Level Estimated
04:17PM 18.4322 -80.2441 360° North  Level Estimated
04:18PM 18.7075 -80.2457 360° North  Level Estimated
04:19PM 18.9828 -80.2474 360° North  Level Estimated
04:20PM 19.2582 -80.2490 360° North  Level Estimated
04:21PM 19.5335 -80.2507 360° North  Level Estimated
04:22PM 19.8088 -80.2523 360° North  Level Estimated
04:23PM 20.0841 -80.2540 360° North  Level Estimated
04:24PM 20.3594 -80.2557 360° North  Level Estimated
04:25PM 20.6348 -80.2574 360° North  Level Estimated
04:26PM 20.9101 -80.2591 360° North  Level Estimated
04:27PM 21.1854 -80.2607 360° North  Level Estimated
04:28PM 21.4607 -80.2625 360° North  Level Estimated
04:29PM 21.7360 -80.2642 360° North  Level Estimated
04:30PM 22.0114 -80.2659 360° North  Level Estimated
04:31PM 22.2867 -80.2676 360° North  Level Estimated
04:32PM 22.5620 -80.2693 360° North  Level Estimated
04:33PM 22.8373 -80.2710 360° North  Level Estimated
04:34PM 23.1126 -80.2728 360° North  Level Estimated
04:35PM 23.3880 -80.2745 360° North  Level Estimated
04:36PM 23.6633 -80.2763 360° North  Level Estimated
04:37PM 23.9386 -80.2780 360° North  Level Estimated
04:38PM 24.2139 -80.2798 360° North  Level Estimated
04:39PM 24.4892 -80.2816 360° North  Level Estimated
04:40PM 24.7646 -80.2834 360° North  Level Estimated
04:41PM 25.0399 -80.2851 360° North  Level Estimated
04:42PM 25.3152 -80.2869 360° North  Level Estimated
04:43PM 25.5905 -80.2888 360° North  Level Estimated
04:44PM 25.7954 -80.2901 360° North  Level Estimated
04:45PM 25.7954 -80.2901 318° Northwest  Level Estimated
04:46PM 25.7954 -80.2901 318° Northwest  Level Estimated
04:47PM 25.7954 -80.2901 318° Northwest  Level Estimated
04:48PM 25.7954 -80.2901 318° Northwest  Level Estimated
04:49PM 25.7954 -80.2901 318° Northwest  Level Estimated
04:50PM 25.7954 -80.2901 318° Northwest  Level Estimated
04:51PM 25.7954 -80.2901 318° Northwest  Level Estimated
04:52PM 25.7954 -80.2901 318° Northwest  Level Estimated
04:53PM 25.7954 -80.2901 318° Northwest  Level Estimated
04:54PM 25.7954 -80.2901 318° Northwest  Level Estimated
04:55PM 25.7954 -80.2901 318° Northwest  Level Estimated
04:56PM 25.7954 -80.2901 318° Northwest  Level Estimated
04:57PM 25.7954 -80.2901 318° Northwest  Level Estimated
04:58PM 25.7954 -80.2901 318° Northwest  Level Estimated
04:59PM 25.7954 -80.2901 318° Northwest  Level Estimated
05:00PM 25.7954 -80.2901 318° Northwest  Level Estimated
05:01PM 25.7954 -80.2901 318° Northwest  Level Estimated
05:02PM 25.7954 -80.2901 318° Northwest  Level Estimated
05:03PM 25.7954 -80.2901 318° Northwest  Level Estimated
05:04PM 25.7954 -80.2901 318° Northwest  Level Estimated
05:05PM 25.7954 -80.2901 318° Northwest  Level Estimated
05:06PM 25.7954 -80.2901 318° Northwest  Level Estimated
05:07PM 25.7954 -80.2901 318° Northwest  Level Estimated
05:08PM 25.7954 -80.2901 318° Northwest  Level Estimated
05:09PM 25.7954 -80.2901 318° Northwest  Level Estimated
05:10PM 25.7954 -80.2901 318° Northwest  Level Estimated
05:11PM 25.7954 -80.2901 318° Northwest  Level Estimated
05:12PM 25.7954 -80.2901 318° Northwest  Level Estimated
05:13PM 25.7954 -80.2901 318° Northwest  Level Estimated
05:14PM 25.7954 -80.2901 318° Northwest  Level Estimated
05:15PM 25.7954 -80.2901 318° Northwest  Level Estimated
05:16PM 25.7954 -80.2901 318° Northwest  Level Estimated
05:17PM 25.7954 -80.2901 318° Northwest  Level Estimated
05:18PM 25.7954 -80.2901 318° Northwest  Level Estimated
05:19PM 25.7954 -80.2901 77° East  Level Estimated
05:20PM 25.7954 -80.2901 77° East  Level Estimated
05:21PM 25.7954 -80.2901 77° East  Level Estimated
05:22PM 25.7954 -80.2901 77° East  Level Estimated
05:22PM 23.2208 -81.2303 77° East 474 545 36,000  Level Miami Center
05:23PM 25.7954 -80.2901 77° East  Level Estimated
05:23PM 23.3400 -81.2186 North 465 535 36,000  Level Miami Center
05:24PM 25.7954 -80.2901 77° East  Level Estimated
05:25PM 25.7954 -80.2901 77° East  Level Estimated
05:25PM 23.5792 -81.1836 North 436 502 36,000  Level Miami Center
05:26PM 25.7954 -80.2901 77° East  Level Estimated
05:26PM 23.6986 -81.1672 North 430 495 36,000  Level Miami Center
05:27PM 25.7954 -80.2901 77° East  Level Estimated
05:27PM 23.8350 -81.1492 North 435 501 36,000  Level Miami Center
05:28PM 23.9544 -81.1328 North 440 506 36,000  Level Miami Center
05:29PM 24.0761 -81.1189 North 440 506 36,000 -1,980 Level Miami Center
05:35PM 24.7490 -81.0270 North 403 464 22,700 -2,100 Descending FlightAware
05:36PM 24.8220 -81.0170 North 402 463 22,400 -240 Descending FlightAware
05:36PM 24.8850 -81.0090 North 402 463 22,400 -2,400 Level FlightAware
05:37PM 24.9750 -80.9940 North 18,600 -3,120 Descending FlightAware
05:38PM 25.1230 -80.9730 North 376 433 15,900 -1,980 Descending FlightAware
05:39PM 25.2050 -80.9610 North 356 410 14,400 -1,920 Descending FlightAware
05:40PM 25.2700 -80.9510 North 355 409 13,200 -1,800 Descending FlightAware
05:40PM 25.3360 -80.9420 North 339 390 12,000 -1,800 Descending FlightAware
05:41PM 25.4060 -80.9320 North 337 388 10,700 -1,140 Descending FlightAware
05:42PM 25.4640 -80.9230 North 307 353 10,400 -540 Descending FlightAware
05:43PM 25.5240 -80.9140 North 278 320 10,000 -540 Descending FlightAware
05:43PM 25.5430 -80.9030 28° Northeast 276 318 9,900 -240 Descending FlightAware
05:43PM 25.5560 -80.8850 51° Northeast 275 316 9,900  Level FlightAware
05:43PM 25.5690 -80.8540 65° Northeast 276 318 9,900 -660 Level FlightAware
05:44PM 25.5900 -80.8190 56° Northeast 273 314 9,300 -1,440 Descending FlightAware
05:44PM 25.6100 -80.7830 58° Northeast 268 308 8,500 -1,680 Descending FlightAware
05:45PM 25.6260 -80.7540 59° Northeast 270 311 7,800 -1,800 Descending FlightAware
05:45PM 25.6370 -80.7350 57° Northeast 269 310 7,300 -1,740 Descending FlightAware
05:46PM 25.6570 -80.7000 58° Northeast 259 298 6,500 -1,440 Descending FlightAware
05:46PM 25.6720 -80.6730 58° Northeast 245 282 6,000 -1,320 Descending FlightAware
05:47PM 25.6910 -80.6420 56° Northeast 238 274 5,300 -1,560 Descending FlightAware
05:47PM 25.7060 -80.6160 57° Northeast 236 272 4,600 -1,320 Descending FlightAware
05:47PM 25.7250 -80.5860 55° Northeast 232 267 4,100 -780 Descending FlightAware
05:48PM 25.7400 -80.5630 54° Northeast 207 238 3,900 -240 Descending FlightAware
05:48PM 25.7560 -80.5380 55° Northeast 201 231 3,900 -120 Level FlightAware
05:49PM 25.7680 -80.5110 64° Northeast 186 214 3,800 -900 Descending FlightAware
05:49PM 25.7700 -80.4860 85° East 194 223 3,100 -1,380 Descending FlightAware
05:50PM 25.7720 -80.4670 83° East 188 216 2,800 -1,200 Descending FlightAware
05:50PM 25.7730 -80.4330 88° East 185 213 2,000 -1,140 Descending FlightAware
05:51PM 25.7750 -80.3990 86° East 159 183 1,400 -840 Descending FlightAware
05:52PM 25.7760 -80.3690 88° East 132 152 900 -720 Descending FlightAware
05:52PM 25.7780 -80.3380 86° East 133 153 400 -480 Descending FlightAware
05:53PM 25.7780 -80.3230 90° East 133 153 400  Level FlightAware